sensor_id;sensor_type;location;lat;lon;timestamp;P1;durP1;ratioP1;P2;durP2;ratioP2
12369;SDS011;6249;52.128;9.986;2022-10-31T00:01:12;18.43;;;5.20;;
12369;SDS011;6249;52.128;9.986;2022-10-31T00:04:38;11.83;;;4.57;;
12369;SDS011;6249;52.128;9.986;2022-10-31T00:08:01;14.73;;;4.93;;
12369;SDS011;6249;52.128;9.986;2022-10-31T00:11:22;12.40;;;4.73;;
12369;SDS011;6249;52.128;9.986;2022-10-31T00:14:45;21.73;;;5.20;;
12369;SDS011;6249;52.128;9.986;2022-10-31T00:18:06;24.07;;;5.30;;
12369;SDS011;6249;52.128;9.986;2022-10-31T00:21:27;13.00;;;4.77;;
12369;SDS011;6249;52.128;9.986;2022-10-31T00:24:49;15.00;;;5.33;;
12369;SDS011;6249;52.128;9.986;2022-10-31T00:28:10;14.87;;;5.10;;
12369;SDS011;6249;52.128;9.986;2022-10-31T00:31:32;13.90;;;4.60;;
12369;SDS011;6249;52.128;9.986;2022-10-31T00:34:54;17.40;;;5.63;;
12369;SDS011;6249;52.128;9.986;2022-10-31T00:38:17;14.70;;;5.00;;
12369;SDS011;6249;52.128;9.986;2022-10-31T00:41:38;11.90;;;5.27;;
12369;SDS011;6249;52.128;9.986;2022-10-31T00:44:59;14.07;;;5.23;;
12369;SDS011;6249;52.128;9.986;2022-10-31T00:48:19;12.30;;;5.60;;
12369;SDS011;6249;52.128;9.986;2022-10-31T00:51:42;17.20;;;5.77;;
12369;SDS011;6249;52.128;9.986;2022-10-31T00:55:03;14.10;;;6.47;;
12369;SDS011;6249;52.128;9.986;2022-10-31T00:58:24;15.43;;;5.40;;
12369;SDS011;6249;52.128;9.986;2022-10-31T01:01:44;10.87;;;5.33;;
12369;SDS011;6249;52.128;9.986;2022-10-31T01:05:05;18.87;;;5.73;;
12369;SDS011;6249;52.128;9.986;2022-10-31T01:08:26;15.00;;;5.90;;
12369;SDS011;6249;52.128;9.986;2022-10-31T01:11:51;13.33;;;5.27;;
12369;SDS011;6249;52.128;9.986;2022-10-31T01:15:12;11.63;;;5.40;;
12369;SDS011;6249;52.128;9.986;2022-10-31T01:18:43;14.40;;;5.30;;
12369;SDS011;6249;52.128;9.986;2022-10-31T01:22:05;12.67;;;5.23;;
12369;SDS011;6249;52.128;9.986;2022-10-31T01:25:25;14.57;;;6.00;;
12369;SDS011;6249;52.128;9.986;2022-10-31T01:28:47;14.73;;;6.20;;
12369;SDS011;6249;52.128;9.986;2022-10-31T01:32:15;15.10;;;6.00;;
12369;SDS011;6249;52.128;9.986;2022-10-31T01:35:35;17.83;;;6.10;;
12369;SDS011;6249;52.128;9.986;2022-10-31T01:38:57;12.63;;;6.13;;
12369;SDS011;6249;52.128;9.986;2022-10-31T01:42:20;11.90;;;5.40;;
12369;SDS011;6249;52.128;9.986;2022-10-31T01:45:42;19.03;;;5.80;;
12369;SDS011;6249;52.128;9.986;2022-10-31T01:49:13;25.20;;;6.43;;
12369;SDS011;6249;52.128;9.986;2022-10-31T01:52:41;15.17;;;6.33;;
12369;SDS011;6249;52.128;9.986;2022-10-31T01:56:10;14.03;;;5.60;;
12369;SDS011;6249;52.128;9.986;2022-10-31T01:59:32;19.70;;;7.20;;
12369;SDS011;6249;52.128;9.986;2022-10-31T02:02:58;13.30;;;6.87;;
12369;SDS011;6249;52.128;9.986;2022-10-31T02:06:22;29.90;;;6.80;;
12369;SDS011;6249;52.128;9.986;2022-10-31T02:10:06;32.50;;;13.27;;
12369;SDS011;6249;52.128;9.986;2022-10-31T02:13:27;23.50;;;11.10;;
12369;SDS011;6249;52.128;9.986;2022-10-31T02:16:49;29.37;;;13.33;;
12369;SDS011;6249;52.128;9.986;2022-10-31T02:20:12;29.03;;;13.70;;
12369;SDS011;6249;52.128;9.986;2022-10-31T02:31:12;32.53;;;13.80;;
12369;SDS011;6249;52.128;9.986;2022-10-31T02:42:46;26.93;;;13.40;;
12369;SDS011;6249;52.128;9.986;2022-10-31T02:46:23;36.00;;;14.20;;
12369;SDS011;6249;52.128;9.986;2022-10-31T02:49:47;29.80;;;12.90;;
12369;SDS011;6249;52.128;9.986;2022-10-31T02:53:25;29.57;;;12.87;;
12369;SDS011;6249;52.128;9.986;2022-10-31T02:56:46;26.30;;;12.47;;
12369;SDS011;6249;52.128;9.986;2022-10-31T03:00:08;31.10;;;12.87;;
12369;SDS011;6249;52.128;9.986;2022-10-31T03:03:33;33.77;;;12.80;;
12369;SDS011;6249;52.128;9.986;2022-10-31T03:10:41;24.03;;;12.50;;
12369;SDS011;6249;52.128;9.986;2022-10-31T03:14:10;38.93;;;12.67;;
12369;SDS011;6249;52.128;9.986;2022-10-31T03:17:40;32.40;;;13.40;;
12369;SDS011;6249;52.128;9.986;2022-10-31T03:21:09;28.77;;;13.23;;
12369;SDS011;6249;52.128;9.986;2022-10-31T03:24:37;38.57;;;13.97;;
12369;SDS011;6249;52.128;9.986;2022-10-31T03:28:01;28.40;;;13.50;;
12369;SDS011;6249;52.128;9.986;2022-10-31T03:31:29;31.63;;;13.63;;
12369;SDS011;6249;52.128;9.986;2022-10-31T03:34:59;24.27;;;11.90;;
12369;SDS011;6249;52.128;9.986;2022-10-31T03:38:22;24.30;;;11.87;;
12369;SDS011;6249;52.128;9.986;2022-10-31T03:41:44;28.57;;;12.73;;
12369;SDS011;6249;52.128;9.986;2022-10-31T03:45:11;31.90;;;14.00;;
12369;SDS011;6249;52.128;9.986;2022-10-31T03:48:35;28.17;;;12.83;;
12369;SDS011;6249;52.128;9.986;2022-10-31T03:52:02;31.43;;;13.10;;
12369;SDS011;6249;52.128;9.986;2022-10-31T03:55:25;30.70;;;14.97;;
12369;SDS011;6249;52.128;9.986;2022-10-31T03:59:02;28.43;;;14.17;;
12369;SDS011;6249;52.128;9.986;2022-10-31T04:02:32;27.80;;;12.47;;
12369;SDS011;6249;52.128;9.986;2022-10-31T04:05:58;26.20;;;12.63;;
12369;SDS011;6249;52.128;9.986;2022-10-31T04:09:25;25.97;;;13.50;;
12369;SDS011;6249;52.128;9.986;2022-10-31T04:12:52;30.27;;;15.30;;
12369;SDS011;6249;52.128;9.986;2022-10-31T04:16:20;31.50;;;13.80;;
12369;SDS011;6249;52.128;9.986;2022-10-31T04:19:45;32.90;;;15.37;;
12369;SDS011;6249;52.128;9.986;2022-10-31T04:23:12;35.90;;;14.83;;
12369;SDS011;6249;52.128;9.986;2022-10-31T04:26:38;33.20;;;15.53;;
12369;SDS011;6249;52.128;9.986;2022-10-31T04:29:58;35.43;;;16.50;;
12369;SDS011;6249;52.128;9.986;2022-10-31T04:33:22;27.73;;;14.77;;
12369;SDS011;6249;52.128;9.986;2022-10-31T04:36:42;32.30;;;15.80;;
12369;SDS011;6249;52.128;9.986;2022-10-31T04:40:03;31.70;;;15.77;;
12369;SDS011;6249;52.128;9.986;2022-10-31T04:43:26;41.93;;;17.23;;
12369;SDS011;6249;52.128;9.986;2022-10-31T04:46:47;35.90;;;17.67;;
12369;SDS011;6249;52.128;9.986;2022-10-31T04:50:12;32.60;;;15.13;;
12369;SDS011;6249;52.128;9.986;2022-10-31T04:53:32;41.40;;;18.70;;
12369;SDS011;6249;52.128;9.986;2022-10-31T04:56:53;36.80;;;17.10;;
12369;SDS011;6249;52.128;9.986;2022-10-31T05:00:17;40.83;;;18.33;;
12369;SDS011;6249;52.128;9.986;2022-10-31T05:03:39;37.87;;;18.57;;
12369;SDS011;6249;52.128;9.986;2022-10-31T05:07:00;40.07;;;17.17;;
12369;SDS011;6249;52.128;9.986;2022-10-31T05:10:23;38.67;;;18.10;;
12369;SDS011;6249;52.128;9.986;2022-10-31T05:13:46;41.17;;;18.70;;
12369;SDS011;6249;52.128;9.986;2022-10-31T05:17:09;36.73;;;17.27;;
12369;SDS011;6249;52.128;9.986;2022-10-31T05:20:32;42.90;;;19.77;;
12369;SDS011;6249;52.128;9.986;2022-10-31T05:23:55;43.37;;;20.63;;
12369;SDS011;6249;52.128;9.986;2022-10-31T05:27:15;50.13;;;21.67;;
12369;SDS011;6249;52.128;9.986;2022-10-31T05:30:38;48.50;;;21.53;;
12369;SDS011;6249;52.128;9.986;2022-10-31T05:33:58;40.00;;;18.50;;
12369;SDS011;6249;52.128;9.986;2022-10-31T05:37:21;49.73;;;19.70;;
12369;SDS011;6249;52.128;9.986;2022-10-31T05:40:47;38.70;;;19.20;;
12369;SDS011;6249;52.128;9.986;2022-10-31T05:44:08;43.70;;;19.60;;
12369;SDS011;6249;52.128;9.986;2022-10-31T05:47:28;42.33;;;19.57;;
12369;SDS011;6249;52.128;9.986;2022-10-31T05:50:51;38.23;;;19.50;;
12369;SDS011;6249;52.128;9.986;2022-10-31T05:54:12;42.13;;;19.37;;
12369;SDS011;6249;52.128;9.986;2022-10-31T05:57:32;50.30;;;22.40;;
12369;SDS011;6249;52.128;9.986;2022-10-31T06:00:58;46.57;;;22.20;;
12369;SDS011;6249;52.128;9.986;2022-10-31T06:04:18;49.13;;;23.00;;
12369;SDS011;6249;52.128;9.986;2022-10-31T06:07:41;47.07;;;23.77;;
12369;SDS011;6249;52.128;9.986;2022-10-31T06:11:07;52.57;;;24.00;;
12369;SDS011;6249;52.128;9.986;2022-10-31T06:14:27;45.63;;;21.30;;
12369;SDS011;6249;52.128;9.986;2022-10-31T06:17:56;43.50;;;21.77;;
12369;SDS011;6249;52.128;9.986;2022-10-31T06:21:18;51.97;;;21.30;;
12369;SDS011;6249;52.128;9.986;2022-10-31T06:24:41;87.37;;;40.33;;
12369;SDS011;6249;52.128;9.986;2022-10-31T06:28:04;48.40;;;22.90;;
12369;SDS011;6249;52.128;9.986;2022-10-31T06:31:25;52.00;;;22.20;;
12369;SDS011;6249;52.128;9.986;2022-10-31T06:34:46;52.23;;;22.83;;
12369;SDS011;6249;52.128;9.986;2022-10-31T06:38:09;52.50;;;22.53;;
12369;SDS011;6249;52.128;9.986;2022-10-31T06:41:29;49.30;;;22.30;;
12369;SDS011;6249;52.128;9.986;2022-10-31T06:44:52;57.57;;;24.40;;
12369;SDS011;6249;52.128;9.986;2022-10-31T06:48:15;59.37;;;24.37;;
12369;SDS011;6249;52.128;9.986;2022-10-31T06:51:35;44.70;;;22.33;;
12369;SDS011;6249;52.128;9.986;2022-10-31T06:54:56;51.40;;;22.90;;
12369;SDS011;6249;52.128;9.986;2022-10-31T06:58:19;51.57;;;23.67;;
12369;SDS011;6249;52.128;9.986;2022-10-31T07:01:42;73.70;;;32.53;;
12369;SDS011;6249;52.128;9.986;2022-10-31T07:05:02;60.17;;;25.40;;
12369;SDS011;6249;52.128;9.986;2022-10-31T07:08:23;51.43;;;21.67;;
12369;SDS011;6249;52.128;9.986;2022-10-31T07:11:44;42.90;;;22.10;;
12369;SDS011;6249;52.128;9.986;2022-10-31T07:15:05;54.23;;;21.60;;
12369;SDS011;6249;52.128;9.986;2022-10-31T07:18:26;52.90;;;24.50;;
12369;SDS011;6249;52.128;9.986;2022-10-31T07:21:46;51.33;;;22.10;;
12369;SDS011;6249;52.128;9.986;2022-10-31T07:25:12;48.37;;;20.53;;
12369;SDS011;6249;52.128;9.986;2022-10-31T07:28:37;41.63;;;20.13;;
12369;SDS011;6249;52.128;9.986;2022-10-31T07:32:02;50.00;;;23.40;;
12369;SDS011;6249;52.128;9.986;2022-10-31T07:35:23;48.90;;;21.97;;
12369;SDS011;6249;52.128;9.986;2022-10-31T07:38:52;55.93;;;22.93;;
12369;SDS011;6249;52.128;9.986;2022-10-31T07:42:15;51.30;;;21.83;;
12369;SDS011;6249;52.128;9.986;2022-10-31T07:45:38;42.50;;;21.00;;
12369;SDS011;6249;52.128;9.986;2022-10-31T07:48:58;59.57;;;30.33;;
12369;SDS011;6249;52.128;9.986;2022-10-31T07:52:19;81.17;;;38.37;;
12369;SDS011;6249;52.128;9.986;2022-10-31T07:55:42;47.60;;;20.67;;
12369;SDS011;6249;52.128;9.986;2022-10-31T07:59:05;53.20;;;22.20;;
12369;SDS011;6249;52.128;9.986;2022-10-31T08:02:26;39.37;;;20.20;;
12369;SDS011;6249;52.128;9.986;2022-10-31T08:05:46;43.53;;;22.13;;
12369;SDS011;6249;52.128;9.986;2022-10-31T08:09:07;42.63;;;20.37;;
12369;SDS011;6249;52.128;9.986;2022-10-31T08:12:32;30.93;;;14.93;;
12369;SDS011;6249;52.128;9.986;2022-10-31T08:15:52;28.20;;;14.27;;
12369;SDS011;6249;52.128;9.986;2022-10-31T08:19:16;33.57;;;14.00;;
12369;SDS011;6249;52.128;9.986;2022-10-31T08:22:37;25.43;;;12.27;;
12369;SDS011;6249;52.128;9.986;2022-10-31T08:25:57;31.27;;;14.97;;
12369;SDS011;6249;52.128;9.986;2022-10-31T08:29:20;29.83;;;13.33;;
12369;SDS011;6249;52.128;9.986;2022-10-31T08:32:41;29.00;;;15.97;;
12369;SDS011;6249;52.128;9.986;2022-10-31T08:36:04;37.70;;;16.77;;
12369;SDS011;6249;52.128;9.986;2022-10-31T08:39:30;37.13;;;18.27;;
12369;SDS011;6249;52.128;9.986;2022-10-31T08:42:59;39.43;;;17.90;;
12369;SDS011;6249;52.128;9.986;2022-10-31T08:46:20;38.97;;;19.77;;
12369;SDS011;6249;52.128;9.986;2022-10-31T08:49:41;31.63;;;16.90;;
12369;SDS011;6249;52.128;9.986;2022-10-31T08:53:03;31.97;;;16.57;;
12369;SDS011;6249;52.128;9.986;2022-10-31T08:56:25;40.37;;;18.17;;
12369;SDS011;6249;52.128;9.986;2022-10-31T08:59:45;35.07;;;16.20;;
12369;SDS011;6249;52.128;9.986;2022-10-31T09:03:08;37.30;;;16.33;;
12369;SDS011;6249;52.128;9.986;2022-10-31T09:06:33;35.23;;;16.13;;
12369;SDS011;6249;52.128;9.986;2022-10-31T09:09:53;45.87;;;21.63;;
12369;SDS011;6249;52.128;9.986;2022-10-31T09:13:19;37.60;;;16.70;;
12369;SDS011;6249;52.128;9.986;2022-10-31T09:16:41;34.83;;;15.20;;
12369;SDS011;6249;52.128;9.986;2022-10-31T09:20:04;25.57;;;14.60;;
12369;SDS011;6249;52.128;9.986;2022-10-31T09:23:24;31.93;;;16.30;;
12369;SDS011;6249;52.128;9.986;2022-10-31T09:26:47;31.70;;;16.60;;
12369;SDS011;6249;52.128;9.986;2022-10-31T09:30:10;32.27;;;15.37;;
12369;SDS011;6249;52.128;9.986;2022-10-31T09:33:31;37.17;;;16.13;;
12369;SDS011;6249;52.128;9.986;2022-10-31T09:36:54;37.27;;;16.93;;
12369;SDS011;6249;52.128;9.986;2022-10-31T09:40:17;34.90;;;17.27;;
12369;SDS011;6249;52.128;9.986;2022-10-31T09:47:22;41.40;;;19.07;;
12369;SDS011;6249;52.128;9.986;2022-10-31T09:50:48;34.07;;;17.60;;
12369;SDS011;6249;52.128;9.986;2022-10-31T09:54:26;36.30;;;17.60;;
12369;SDS011;6249;52.128;9.986;2022-10-31T09:58:03;33.83;;;15.80;;
12369;SDS011;6249;52.128;9.986;2022-10-31T10:05:14;36.87;;;17.43;;
12369;SDS011;6249;52.128;9.986;2022-10-31T10:08:43;33.60;;;16.63;;
12369;SDS011;6249;52.128;9.986;2022-10-31T10:23:02;30.00;;;16.00;;
12369;SDS011;6249;52.128;9.986;2022-10-31T10:26:43;33.73;;;16.60;;
12369;SDS011;6249;52.128;9.986;2022-10-31T10:33:39;28.93;;;14.27;;
12369;SDS011;6249;52.128;9.986;2022-10-31T10:37:02;26.40;;;14.23;;
12369;SDS011;6249;52.128;9.986;2022-10-31T10:40:28;27.13;;;12.20;;
12369;SDS011;6249;52.128;9.986;2022-10-31T10:43:49;24.90;;;14.20;;
12369;SDS011;6249;52.128;9.986;2022-10-31T10:47:16;28.13;;;13.17;;
12369;SDS011;6249;52.128;9.986;2022-10-31T10:50:57;26.93;;;13.17;;
12369;SDS011;6249;52.128;9.986;2022-10-31T11:01:23;24.23;;;11.23;;
12369;SDS011;6249;52.128;9.986;2022-10-31T11:04:43;22.23;;;11.50;;
12369;SDS011;6249;52.128;9.986;2022-10-31T11:08:08;23.70;;;11.47;;
12369;SDS011;6249;52.128;9.986;2022-10-31T11:11:29;22.03;;;12.63;;
12369;SDS011;6249;52.128;9.986;2022-10-31T11:14:56;28.83;;;13.87;;
12369;SDS011;6249;52.128;9.986;2022-10-31T11:18:20;23.60;;;10.57;;
12369;SDS011;6249;52.128;9.986;2022-10-31T11:21:44;29.17;;;11.20;;
12369;SDS011;6249;52.128;9.986;2022-10-31T11:28:41;26.83;;;10.43;;
12369;SDS011;6249;52.128;9.986;2022-10-31T11:32:02;19.53;;;8.83;;
12369;SDS011;6249;52.128;9.986;2022-10-31T11:35:25;20.27;;;9.50;;
12369;SDS011;6249;52.128;9.986;2022-10-31T11:38:46;18.97;;;9.83;;
12369;SDS011;6249;52.128;9.986;2022-10-31T11:42:07;23.63;;;9.87;;
12369;SDS011;6249;52.128;9.986;2022-10-31T11:48:52;18.30;;;9.20;;
12369;SDS011;6249;52.128;9.986;2022-10-31T11:55:39;20.93;;;9.53;;
12369;SDS011;6249;52.128;9.986;2022-10-31T11:59:04;22.67;;;9.23;;
12369;SDS011;6249;52.128;9.986;2022-10-31T12:02:34;22.50;;;9.13;;
12369;SDS011;6249;52.128;9.986;2022-10-31T12:06:38;17.33;;;8.20;;
12369;SDS011;6249;52.128;9.986;2022-10-31T12:09:43;15.80;;;8.83;;
12369;SDS011;6249;52.128;9.986;2022-10-31T12:16:49;16.90;;;7.63;;
12369;SDS011;6249;52.128;9.986;2022-10-31T12:20:21;16.10;;;7.77;;
12369;SDS011;6249;52.128;9.986;2022-10-31T12:42:10;16.77;;;7.70;;
12369;SDS011;6249;52.128;9.986;2022-10-31T12:59:51;15.63;;;7.00;;
12369;SDS011;6249;52.128;9.986;2022-10-31T13:07:25;13.17;;;6.53;;
12369;SDS011;6249;52.128;9.986;2022-10-31T13:17:51;12.50;;;6.60;;
12369;SDS011;6249;52.128;9.986;2022-10-31T13:21:22;15.27;;;7.60;;
12369;SDS011;6249;52.128;9.986;2022-10-31T13:24:57;12.03;;;5.90;;
12369;SDS011;6249;52.128;9.986;2022-10-31T13:28:47;10.77;;;6.47;;
12369;SDS011;6249;52.128;9.986;2022-10-31T13:32:11;15.47;;;5.50;;
12369;SDS011;6249;52.128;9.986;2022-10-31T13:46:24;13.27;;;5.77;;
12369;SDS011;6249;52.128;9.986;2022-10-31T13:50:14;13.83;;;5.80;;
12369;SDS011;6249;52.128;9.986;2022-10-31T13:53:45;12.77;;;6.17;;
12369;SDS011;6249;52.128;9.986;2022-10-31T14:04:49;15.77;;;6.10;;
12369;SDS011;6249;52.128;9.986;2022-10-31T14:08:18;20.70;;;9.30;;
12369;SDS011;6249;52.128;9.986;2022-10-31T14:11:45;15.77;;;7.47;;
12369;SDS011;6249;52.128;9.986;2022-10-31T14:15:15;17.50;;;7.70;;
12369;SDS011;6249;52.128;9.986;2022-10-31T14:18:43;18.03;;;9.77;;
12369;SDS011;6249;52.128;9.986;2022-10-31T14:22:20;20.57;;;8.50;;
12369;SDS011;6249;52.128;9.986;2022-10-31T14:25:41;22.57;;;8.47;;
12369;SDS011;6249;52.128;9.986;2022-10-31T14:32:34;18.13;;;9.57;;
12369;SDS011;6249;52.128;9.986;2022-10-31T14:36:12;25.27;;;10.73;;
12369;SDS011;6249;52.128;9.986;2022-10-31T14:39:46;26.97;;;10.20;;
12369;SDS011;6249;52.128;9.986;2022-10-31T14:46:58;17.90;;;9.90;;
12369;SDS011;6249;52.128;9.986;2022-10-31T14:54:07;16.90;;;10.10;;
12369;SDS011;6249;52.128;9.986;2022-10-31T14:57:49;22.27;;;9.23;;
12369;SDS011;6249;52.128;9.986;2022-10-31T15:01:32;19.27;;;8.43;;
12369;SDS011;6249;52.128;9.986;2022-10-31T15:04:56;17.80;;;7.53;;
12369;SDS011;6249;52.128;9.986;2022-10-31T15:12:33;33.20;;;11.53;;
12369;SDS011;6249;52.128;9.986;2022-10-31T15:15:58;19.70;;;9.17;;
12369;SDS011;6249;52.128;9.986;2022-10-31T15:19:27;17.37;;;9.17;;
12369;SDS011;6249;52.128;9.986;2022-10-31T15:22:50;16.47;;;8.00;;
12369;SDS011;6249;52.128;9.986;2022-10-31T15:26:13;26.60;;;8.30;;
12369;SDS011;6249;52.128;9.986;2022-10-31T15:29:46;17.13;;;7.87;;
12369;SDS011;6249;52.128;9.986;2022-10-31T15:33:22;15.10;;;7.10;;
12369;SDS011;6249;52.128;9.986;2022-10-31T15:36:47;14.87;;;7.17;;
12369;SDS011;6249;52.128;9.986;2022-10-31T15:40:17;13.40;;;6.20;;
12369;SDS011;6249;52.128;9.986;2022-10-31T15:43:40;16.33;;;6.17;;
12369;SDS011;6249;52.128;9.986;2022-10-31T15:47:05;18.30;;;7.13;;
12369;SDS011;6249;52.128;9.986;2022-10-31T15:50:36;17.00;;;6.63;;
12369;SDS011;6249;52.128;9.986;2022-10-31T15:54:00;17.77;;;7.60;;
12369;SDS011;6249;52.128;9.986;2022-10-31T15:57:23;23.10;;;8.53;;
12369;SDS011;6249;52.128;9.986;2022-10-31T16:00:56;14.83;;;7.60;;
12369;SDS011;6249;52.128;9.986;2022-10-31T16:04:39;27.47;;;9.40;;
12369;SDS011;6249;52.128;9.986;2022-10-31T16:11:48;20.73;;;9.70;;
12369;SDS011;6249;52.128;9.986;2022-10-31T16:15:14;26.00;;;11.87;;
12369;SDS011;6249;52.128;9.986;2022-10-31T16:18:39;26.03;;;11.90;;
12369;SDS011;6249;52.128;9.986;2022-10-31T16:22:14;27.93;;;11.80;;
12369;SDS011;6249;52.128;9.986;2022-10-31T16:25:43;23.00;;;10.70;;
12369;SDS011;6249;52.128;9.986;2022-10-31T16:29:04;30.37;;;12.23;;
12369;SDS011;6249;52.128;9.986;2022-10-31T16:32:25;20.20;;;11.10;;
12369;SDS011;6249;52.128;9.986;2022-10-31T16:35:49;31.17;;;12.17;;
12369;SDS011;6249;52.128;9.986;2022-10-31T16:39:10;28.37;;;13.40;;
12369;SDS011;6249;52.128;9.986;2022-10-31T16:42:33;48.93;;;22.97;;
12369;SDS011;6249;52.128;9.986;2022-10-31T16:45:56;39.13;;;17.53;;
12369;SDS011;6249;52.128;9.986;2022-10-31T16:49:22;38.10;;;18.10;;
12369;SDS011;6249;52.128;9.986;2022-10-31T16:52:45;39.50;;;18.70;;
12369;SDS011;6249;52.128;9.986;2022-10-31T16:56:18;50.33;;;21.70;;
12369;SDS011;6249;52.128;9.986;2022-10-31T16:59:46;50.57;;;23.60;;
12369;SDS011;6249;52.128;9.986;2022-10-31T17:03:11;53.23;;;24.87;;
12369;SDS011;6249;52.128;9.986;2022-10-31T17:06:32;53.33;;;25.97;;
12369;SDS011;6249;52.128;9.986;2022-10-31T17:09:55;54.73;;;29.27;;
12369;SDS011;6249;52.128;9.986;2022-10-31T17:13:18;67.83;;;31.30;;
12369;SDS011;6249;52.128;9.986;2022-10-31T17:16:40;68.23;;;31.33;;
12369;SDS011;6249;52.128;9.986;2022-10-31T17:20:01;67.83;;;31.37;;
12369;SDS011;6249;52.128;9.986;2022-10-31T17:23:31;79.40;;;38.47;;
12369;SDS011;6249;52.128;9.986;2022-10-31T17:26:52;68.97;;;29.77;;
12369;SDS011;6249;52.128;9.986;2022-10-31T17:30:13;66.50;;;32.20;;
12369;SDS011;6249;52.128;9.986;2022-10-31T17:33:34;75.70;;;33.60;;
12369;SDS011;6249;52.128;9.986;2022-10-31T17:36:55;74.83;;;34.03;;
12369;SDS011;6249;52.128;9.986;2022-10-31T17:40:16;67.33;;;33.90;;
12369;SDS011;6249;52.128;9.986;2022-10-31T17:43:41;79.20;;;34.00;;
12369;SDS011;6249;52.128;9.986;2022-10-31T17:47:02;74.93;;;36.03;;
12369;SDS011;6249;52.128;9.986;2022-10-31T17:50:23;99.10;;;37.80;;
12369;SDS011;6249;52.128;9.986;2022-10-31T17:53:44;84.77;;;36.60;;
12369;SDS011;6249;52.128;9.986;2022-10-31T17:57:05;87.73;;;40.77;;
12369;SDS011;6249;52.128;9.986;2022-10-31T18:00:28;79.57;;;39.03;;
12369;SDS011;6249;52.128;9.986;2022-10-31T18:03:49;101.03;;;41.40;;
12369;SDS011;6249;52.128;9.986;2022-10-31T18:07:09;92.40;;;39.30;;
12369;SDS011;6249;52.128;9.986;2022-10-31T18:10:30;99.77;;;42.03;;
12369;SDS011;6249;52.128;9.986;2022-10-31T18:13:54;112.90;;;42.57;;
12369;SDS011;6249;52.128;9.986;2022-10-31T18:17:15;98.33;;;41.83;;
12369;SDS011;6249;52.128;9.986;2022-10-31T18:20:36;90.27;;;42.23;;
12369;SDS011;6249;52.128;9.986;2022-10-31T18:24:00;101.63;;;42.30;;
12369;SDS011;6249;52.128;9.986;2022-10-31T18:27:21;105.97;;;47.97;;
12369;SDS011;6249;52.128;9.986;2022-10-31T18:30:42;109.77;;;46.27;;
12369;SDS011;6249;52.128;9.986;2022-10-31T18:34:08;106.30;;;43.47;;
12369;SDS011;6249;52.128;9.986;2022-10-31T18:37:28;112.57;;;47.60;;
12369;SDS011;6249;52.128;9.986;2022-10-31T18:40:49;109.33;;;47.93;;
12369;SDS011;6249;52.128;9.986;2022-10-31T18:44:10;119.13;;;48.80;;
12369;SDS011;6249;52.128;9.986;2022-10-31T18:47:31;114.80;;;49.30;;
12369;SDS011;6249;52.128;9.986;2022-10-31T18:50:51;117.00;;;47.83;;
12369;SDS011;6249;52.128;9.986;2022-10-31T18:54:16;119.43;;;46.23;;
12369;SDS011;6249;52.128;9.986;2022-10-31T18:57:39;133.13;;;50.67;;
12369;SDS011;6249;52.128;9.986;2022-10-31T19:01:08;123.27;;;50.13;;
12369;SDS011;6249;52.128;9.986;2022-10-31T19:04:30;116.20;;;49.13;;
12369;SDS011;6249;52.128;9.986;2022-10-31T19:07:55;122.47;;;48.40;;
12369;SDS011;6249;52.128;9.986;2022-10-31T19:11:18;115.67;;;47.73;;
12369;SDS011;6249;52.128;9.986;2022-10-31T19:14:38;132.10;;;53.87;;
12369;SDS011;6249;52.128;9.986;2022-10-31T19:17:59;122.00;;;47.77;;
12369;SDS011;6249;52.128;9.986;2022-10-31T19:21:23;139.43;;;49.13;;
12369;SDS011;6249;52.128;9.986;2022-10-31T19:24:44;123.57;;;48.07;;
12369;SDS011;6249;52.128;9.986;2022-10-31T19:28:04;121.57;;;48.17;;
12369;SDS011;6249;52.128;9.986;2022-10-31T19:31:29;112.20;;;46.63;;
12369;SDS011;6249;52.128;9.986;2022-10-31T19:34:50;118.50;;;49.30;;
12369;SDS011;6249;52.128;9.986;2022-10-31T19:38:11;122.60;;;50.37;;
12369;SDS011;6249;52.128;9.986;2022-10-31T19:41:31;110.13;;;47.30;;
12369;SDS011;6249;52.128;9.986;2022-10-31T19:44:52;105.37;;;44.87;;
12369;SDS011;6249;52.128;9.986;2022-10-31T19:48:12;118.57;;;47.50;;
12369;SDS011;6249;52.128;9.986;2022-10-31T19:51:33;121.20;;;48.03;;
12369;SDS011;6249;52.128;9.986;2022-10-31T19:54:54;103.60;;;44.87;;
12369;SDS011;6249;52.128;9.986;2022-10-31T19:58:15;108.93;;;47.23;;
12369;SDS011;6249;52.128;9.986;2022-10-31T20:01:35;106.73;;;45.03;;
12369;SDS011;6249;52.128;9.986;2022-10-31T20:04:56;130.73;;;51.27;;
12369;SDS011;6249;52.128;9.986;2022-10-31T20:08:21;129.00;;;53.00;;
12369;SDS011;6249;52.128;9.986;2022-10-31T20:11:42;116.47;;;46.70;;
12369;SDS011;6249;52.128;9.986;2022-10-31T20:15:06;98.87;;;42.40;;
12369;SDS011;6249;52.128;9.986;2022-10-31T20:18:28;102.13;;;42.87;;
12369;SDS011;6249;52.128;9.986;2022-10-31T20:21:49;110.00;;;45.27;;
12369;SDS011;6249;52.128;9.986;2022-10-31T20:25:09;98.13;;;42.33;;
12369;SDS011;6249;52.128;9.986;2022-10-31T20:28:30;98.53;;;44.47;;
12369;SDS011;6249;52.128;9.986;2022-10-31T20:31:52;94.43;;;42.30;;
12369;SDS011;6249;52.128;9.986;2022-10-31T20:35:12;110.93;;;43.43;;
12369;SDS011;6249;52.128;9.986;2022-10-31T20:38:33;105.10;;;43.87;;
12369;SDS011;6249;52.128;9.986;2022-10-31T20:41:57;107.10;;;44.90;;
12369;SDS011;6249;52.128;9.986;2022-10-31T20:45:18;106.00;;;45.13;;
12369;SDS011;6249;52.128;9.986;2022-10-31T20:48:39;117.47;;;44.33;;
12369;SDS011;6249;52.128;9.986;2022-10-31T20:51:59;127.27;;;51.43;;
12369;SDS011;6249;52.128;9.986;2022-10-31T20:55:20;128.87;;;48.83;;
12369;SDS011;6249;52.128;9.986;2022-10-31T20:58:43;139.17;;;53.87;;
12369;SDS011;6249;52.128;9.986;2022-10-31T21:02:07;143.27;;;53.13;;
12369;SDS011;6249;52.128;9.986;2022-10-31T21:05:28;145.70;;;57.60;;
12369;SDS011;6249;52.128;9.986;2022-10-31T21:08:49;147.93;;;54.00;;
12369;SDS011;6249;52.128;9.986;2022-10-31T21:12:10;132.60;;;50.83;;
12369;SDS011;6249;52.128;9.986;2022-10-31T21:15:31;128.13;;;51.60;;
12369;SDS011;6249;52.128;9.986;2022-10-31T21:18:52;125.07;;;47.90;;
12369;SDS011;6249;52.128;9.986;2022-10-31T21:22:13;123.03;;;49.40;;
12369;SDS011;6249;52.128;9.986;2022-10-31T21:25:37;119.03;;;49.40;;
12369;SDS011;6249;52.128;9.986;2022-10-31T21:29:01;123.63;;;50.47;;
12369;SDS011;6249;52.128;9.986;2022-10-31T21:32:23;131.30;;;52.07;;
12369;SDS011;6249;52.128;9.986;2022-10-31T21:35:47;131.33;;;50.60;;
12369;SDS011;6249;52.128;9.986;2022-10-31T21:39:11;140.60;;;54.37;;
12369;SDS011;6249;52.128;9.986;2022-10-31T21:42:32;124.43;;;47.97;;
12369;SDS011;6249;52.128;9.986;2022-10-31T21:45:52;131.27;;;51.07;;
12369;SDS011;6249;52.128;9.986;2022-10-31T21:49:13;106.90;;;46.37;;
12369;SDS011;6249;52.128;9.986;2022-10-31T21:52:34;135.03;;;52.00;;
12369;SDS011;6249;52.128;9.986;2022-10-31T21:56:01;113.70;;;46.27;;
12369;SDS011;6249;52.128;9.986;2022-10-31T21:59:22;134.90;;;51.43;;
12369;SDS011;6249;52.128;9.986;2022-10-31T22:02:43;135.10;;;52.27;;
12369;SDS011;6249;52.128;9.986;2022-10-31T22:06:04;128.80;;;49.70;;
12369;SDS011;6249;52.128;9.986;2022-10-31T22:09:29;116.60;;;49.30;;
12369;SDS011;6249;52.128;9.986;2022-10-31T22:12:49;121.57;;;48.83;;
12369;SDS011;6249;52.128;9.986;2022-10-31T22:16:11;121.20;;;49.00;;
12369;SDS011;6249;52.128;9.986;2022-10-31T22:19:35;113.07;;;46.53;;
12369;SDS011;6249;52.128;9.986;2022-10-31T22:22:56;134.50;;;49.30;;
12369;SDS011;6249;52.128;9.986;2022-10-31T22:26:16;134.03;;;50.70;;
12369;SDS011;6249;52.128;9.986;2022-10-31T22:29:40;118.10;;;48.20;;
12369;SDS011;6249;52.128;9.986;2022-10-31T22:33:00;133.00;;;51.07;;
12369;SDS011;6249;52.128;9.986;2022-10-31T22:36:22;123.90;;;48.70;;